Time;durP1;ratioP1;P1;durP2;ratioP2;P2;SDS_P1;SDS_P2;PMS_P1;PMS_P2;Temp;Humidity;BMP_temperature;BMP_pressure;BME280_temperature;BME280_humidity;BME280_pressure;Samples;Min_cycle;Max_cycle;Signal;HPM_P1;HPM_P2
2023/09/21 00:00:20;;;;;;;2.13;1.42;;;23.60;60.40;;;;;;4949589;28;93180;-86
2023/09/21 00:02:55;;;;;;;2.05;1.60;;;23.70;60.50;;;;;;4930844;28;97161;-86
2023/09/21 00:05:25;;;;;;;2.00;1.55;;;23.60;60.40;;;;;;4929069;28;95999;-85
2023/09/21 00:07:50;;;;;;;2.40;1.55;;;23.60;60.20;;;;;;4929632;28;92748;-85
2023/09/21 00:10:18;;;;;;;2.40;1.40;;;23.60;60.30;;;;;;4928411;28;92579;-86
2023/09/21 00:12:44;;;;;;;5.22;2.28;;;23.60;60.20;;;;;;4930321;28;95862;-85
2023/09/21 00:15:12;;;;;;;3.95;1.70;;;23.60;60.30;;;;;;4945935;28;92419;-86
2023/09/21 00:17:39;;;;;;;4.00;1.77;;;23.60;60.30;;;;;;4948511;28;93242;-85
2023/09/21 00:20:17;;;;;;;2.85;1.77;;;23.60;60.10;;;;;;4952912;28;91368;-86
2023/09/21 00:22:43;;;;;;;2.42;1.85;;;23.60;60.10;;;;;;4949542;28;92933;-85
2023/09/21 00:25:09;;;;;;;1.60;1.50;;;23.60;60.00;;;;;;4929699;28;95286;-85
2023/09/21 00:27:35;;;;;;;3.22;1.77;;;23.60;59.80;;;;;;4949280;28;93738;-85
2023/09/21 00:30:05;;;;;;;1.65;1.25;;;23.60;59.90;;;;;;4931490;28;92651;-85
2023/09/21 00:32:31;;;;;;;2.20;1.70;;;23.60;60.10;;;;;;4945977;28;93546;-85
2023/09/21 00:34:57;;;;;;;1.85;1.45;;;23.50;59.90;;;;;;4945775;28;93025;-86
2023/09/21 00:37:23;;;;;;;2.17;1.48;;;23.50;59.80;;;;;;4930409;28;94078;-85
2023/09/21 00:39:49;;;;;;;2.83;1.73;;;23.60;59.80;;;;;;4948325;28;92429;-85
2023/09/21 00:42:15;;;;;;;2.28;1.60;;;23.60;59.70;;;;;;4946188;28;94450;-85
2023/09/21 00:44:40;;;;;;;2.00;1.40;;;23.60;59.80;;;;;;4948574;28;92460;-85
2023/09/21 00:47:07;;;;;;;1.80;1.35;;;23.50;59.60;;;;;;4948850;28;92753;-85
2023/09/21 00:49:35;;;;;;;2.35;1.55;;;23.60;59.70;;;;;;4946131;28;92549;-86
2023/09/21 00:52:01;;;;;;;3.60;1.40;;;23.50;59.70;;;;;;4947383;28;94361;-85
2023/09/21 00:54:28;;;;;;;2.40;1.80;;;23.50;60.40;;;;;;4946903;28;96597;-85
2023/09/21 00:56:54;;;;;;;1.95;1.50;;;23.60;59.70;;;;;;4948531;28;93240;-85
2023/09/21 00:59:21;;;;;;;2.15;1.55;;;23.50;59.60;;;;;;4949192;28;93260;-86
2023/09/21 01:01:48;;;;;;;2.60;1.63;;;23.50;59.70;;;;;;4946642;28;93156;-85
2023/09/21 01:04:14;;;;;;;1.95;1.63;;;23.50;59.50;;;;;;4928765;28;95588;-85
2023/09/21 01:06:41;;;;;;;2.05;1.30;;;23.50;59.50;;;;;;4947246;28;92681;-85
2023/09/21 01:09:13;;;;;;;1.92;1.40;;;23.50;59.50;;;;;;4948130;28;92685;-86
2023/09/21 01:11:39;;;;;;;2.00;1.33;;;23.50;59.50;;;;;;4930120;28;94653;-86
2023/09/21 01:14:05;;;;;;;2.13;1.73;;;23.50;59.30;;;;;;4930408;28;95280;-85
2023/09/21 01:16:30;;;;;;;1.83;1.40;;;23.50;59.60;;;;;;4930765;28;93435;-85
2023/09/21 01:18:56;;;;;;;3.00;1.75;;;23.50;59.50;;;;;;4933577;28;93317;-85
2023/09/21 01:21:28;;;;;;;2.03;1.60;;;23.50;59.50;;;;;;4945311;28;92890;-85
2023/09/21 01:23:56;;;;;;;2.90;1.52;;;23.50;59.60;;;;;;4946529;28;93090;-85
2023/09/21 01:26:22;;;;;;;1.75;1.40;;;23.40;59.50;;;;;;4949190;28;92644;-85
2023/09/21 01:28:48;;;;;;;1.77;1.58;;;23.50;59.40;;;;;;4946475;28;92602;-85
2023/09/21 01:31:14;;;;;;;2.00;1.30;;;23.50;59.40;;;;;;4929309;28;95710;-86
2023/09/21 01:33:42;;;;;;;1.77;1.40;;;23.50;59.30;;;;;;4949283;28;95362;-85
2023/09/21 01:36:08;;;;;;;1.77;1.20;;;23.40;59.30;;;;;;4929404;28;92762;-86
2023/09/21 01:38:35;;;;;;;3.03;1.58;;;23.40;59.30;;;;;;4945694;28;93063;-86
2023/09/21 01:41:01;;;;;;;2.85;1.85;;;23.50;59.30;;;;;;4946712;28;93401;-86
2023/09/21 01:43:27;;;;;;;1.50;1.40;;;23.40;59.30;;;;;;4930245;28;96883;-85
2023/09/21 01:45:53;;;;;;;1.52;1.40;;;23.40;59.30;;;;;;4949503;28;92635;-85
2023/09/21 01:48:20;;;;;;;1.48;1.38;;;23.40;59.40;;;;;;4942890;28;92896;-86
2023/09/21 01:50:47;;;;;;;1.73;1.58;;;23.40;59.20;;;;;;4928306;28;95088;-85
2023/09/21 01:53:17;;;;;;;2.75;1.83;;;23.40;59.20;;;;;;4927139;28;95352;-85
2023/09/21 01:55:44;;;;;;;1.67;1.30;;;23.40;59.40;;;;;;4927232;28;93060;-85
2023/09/21 01:58:11;;;;;;;2.80;1.58;;;23.40;59.50;;;;;;4929737;28;91345;-85
2023/09/21 02:00:41;;;;;;;2.25;1.60;;;23.40;59.40;;;;;;4946513;28;93298;-85
2023/09/21 02:03:12;;;;;;;1.70;1.42;;;23.40;59.30;;;;;;4944592;28;92842;-86
2023/09/21 02:05:38;;;;;;;1.85;1.40;;;23.40;59.00;;;;;;4927786;28;94352;-85
2023/09/21 02:08:06;;;;;;;2.35;1.63;;;23.40;59.20;;;;;;4947727;28;92325;-86
2023/09/21 02:10:36;;;;;;;1.83;1.60;;;23.40;59.20;;;;;;4946708;28;92708;-85
2023/09/21 02:13:06;;;;;;;2.65;1.45;;;23.40;59.10;;;;;;4950845;28;93981;-86
2023/09/21 02:15:39;;;;;;;1.92;1.42;;;23.40;59.10;;;;;;4946364;28;93412;-86
2023/09/21 02:18:06;;;;;;;2.10;1.75;;;23.40;59.10;;;;;;4945311;28;92459;-85
2023/09/21 02:20:35;;;;;;;2.50;1.67;;;23.40;59.20;;;;;;4926732;28;95725;-85
2023/09/21 02:23:02;;;;;;;1.98;1.45;;;23.40;59.20;;;;;;4929279;28;95320;-86
2023/09/21 02:25:38;;;;;;;2.03;1.63;;;23.40;59.20;;;;;;4950069;28;93665;-85
2023/09/21 02:28:09;;;;;;;1.63;1.45;;;23.40;59.30;;;;;;4950742;28;92777;-85
2023/09/21 02:30:36;;;;;;;1.52;1.35;;;23.40;59.20;;;;;;4949870;28;98582;-85
2023/09/21 02:33:06;;;;;;;2.25;1.60;;;23.40;59.30;;;;;;4945738;28;94814;-86
2023/09/21 02:35:33;;;;;;;1.65;1.55;;;23.40;59.20;;;;;;4946439;28;93005;-85
2023/09/21 02:37:59;;;;;;;2.80;1.73;;;23.40;59.40;;;;;;4926608;28;92057;-85
2023/09/21 02:40:25;;;;;;;2.58;1.40;;;23.40;59.30;;;;;;4946631;28;93124;-85
2023/09/21 02:42:53;;;;;;;2.47;1.50;;;23.40;59.30;;;;;;4930633;28;95482;-85
2023/09/21 02:45:20;;;;;;;2.78;1.60;;;23.40;59.30;;;;;;4945579;28;92439;-85
2023/09/21 02:47:47;;;;;;;1.92;1.27;;;23.40;59.40;;;;;;4947741;28;91431;-85
2023/09/21 02:50:14;;;;;;;2.13;1.40;;;23.40;59.50;;;;;;4946523;28;93005;-86
2023/09/21 02:52:45;;;;;;;1.73;1.33;;;23.40;59.30;;;;;;4933006;28;95675;-85
2023/09/21 02:55:20;;;;;;;2.45;1.52;;;23.40;59.40;;;;;;4945842;28;93115;-85
2023/09/21 02:57:48;;;;;;;1.45;1.13;;;23.40;60.10;;;;;;4952819;28;92622;-85
2023/09/21 03:00:22;;;;;;;1.73;1.50;;;23.40;59.50;;;;;;4927133;28;95128;-85
2023/09/21 03:02:49;;;;;;;1.67;1.30;;;23.40;59.50;;;;;;4927937;28;95463;-86
2023/09/21 03:05:17;;;;;;;1.67;1.40;;;23.40;59.40;;;;;;4948866;28;93041;-85
2023/09/21 03:07:44;;;;;;;2.17;1.40;;;23.40;59.40;;;;;;4947754;28;91953;-85
2023/09/21 03:10:11;;;;;;;1.85;1.50;;;23.40;60.10;;;;;;4948362;28;93609;-86
2023/09/21 03:12:40;;;;;;;2.55;1.60;;;23.40;59.60;;;;;;4935611;28;96032;-85
2023/09/21 03:15:07;;;;;;;;;;;23.40;59.60;;;;;;4949930;28;92813;-86
2023/09/21 03:17:36;;;;;;;1.63;1.52;;;23.40;59.60;;;;;;4952815;28;92860;-85
2023/09/21 03:20:09;;;;;;;1.53;1.37;;;23.40;59.60;;;;;;4948610;28;93695;-84
2023/09/21 03:22:35;;;;;;;2.25;1.65;;;23.40;59.60;;;;;;4952739;28;93350;-85
2023/09/21 03:25:00;;;;;;;1.70;1.40;;;23.40;59.60;;;;;;4949817;28;92815;-85
2023/09/21 03:27:26;;;;;;;1.70;1.30;;;23.30;59.60;;;;;;4949623;28;93233;-85
2023/09/21 03:29:53;;;;;;;1.48;1.23;;;23.30;59.50;;;;;;4949083;28;92902;-86
2023/09/21 03:32:18;;;;;;;2.42;1.65;;;23.30;59.50;;;;;;4947956;28;92598;-86
2023/09/21 03:34:45;;;;;;;2.20;1.60;;;23.30;59.60;;;;;;4951774;28;92782;-85
2023/09/21 03:37:12;;;;;;;2.10;1.48;;;23.30;59.60;;;;;;4933347;28;91690;-85
2023/09/21 03:39:38;;;;;;;1.73;1.40;;;23.30;59.50;;;;;;4950396;28;92350;-86
2023/09/21 03:42:04;;;;;;;1.77;1.65;;;23.30;59.60;;;;;;4947593;28;93299;-85
2023/09/21 03:44:30;;;;;;;1.90;1.42;;;23.30;59.60;;;;;;4935848;28;93534;-86
2023/09/21 03:46:55;;;;;;;2.40;1.45;;;23.30;59.70;;;;;;4947060;28;93254;-86
2023/09/21 03:49:21;;;;;;;2.00;1.40;;;23.30;59.60;;;;;;4928752;28;95857;-86
2023/09/21 03:51:47;;;;;;;1.90;1.52;;;23.30;59.50;;;;;;4946301;28;92951;-85
2023/09/21 03:54:15;;;;;;;1.30;1.20;;;23.30;59.60;;;;;;4948568;28;92455;-85
2023/09/21 03:56:41;;;;;;;3.15;1.55;;;23.30;59.40;;;;;;4931459;28;93040;-85
2023/09/21 03:59:07;;;;;;;2.17;1.25;;;23.30;59.50;;;;;;4947261;28;92778;-85
2023/09/21 04:01:37;;;;;;;1.30;1.20;;;23.30;59.50;;;;;;4952011;28;92963;-85
2023/09/21 04:04:06;;;;;;;2.90;1.42;;;23.30;59.40;;;;;;4949844;28;93117;-85
2023/09/21 04:06:32;;;;;;;;;;;23.30;59.40;;;;;;4948913;28;92745;-85
2023/09/21 04:08:57;;;;;;;1.63;1.30;;;23.30;59.40;;;;;;4946347;28;94699;-85
2023/09/21 04:11:25;;;;;;;1.42;1.30;;;23.30;59.40;;;;;;4948306;28;92955;-85
2023/09/21 04:13:50;;;;;;;2.42;1.60;;;23.20;59.40;;;;;;4937267;28;93270;-85
2023/09/21 04:16:16;;;;;;;1.65;1.52;;;23.30;59.30;;;;;;4950541;28;92923;-85
2023/09/21 04:18:42;;;;;;;1.92;1.63;;;23.30;59.40;;;;;;4945264;28;93138;-85
2023/09/21 04:21:08;;;;;;;1.73;1.52;;;23.30;59.20;;;;;;4946418;28;92879;-85
2023/09/21 04:23:34;;;;;;;1.60;1.50;;;23.30;59.50;;;;;;4948450;28;92735;-86
2023/09/21 04:26:00;;;;;;;2.13;1.42;;;23.30;59.40;;;;;;4950788;28;91790;-86
2023/09/21 04:28:25;;;;;;;1.42;1.33;;;23.30;59.50;;;;;;4928099;28;95563;-85
2023/09/21 04:30:51;;;;;;;1.75;1.35;;;23.30;59.50;;;;;;4949158;28;92849;-86
2023/09/21 04:33:17;;;;;;;1.83;1.30;;;23.30;59.60;;;;;;4931706;28;94018;-85
2023/09/21 04:35:43;;;;;;;1.60;1.45;;;23.20;59.40;;;;;;4944855;28;93380;-85
2023/09/21 04:38:09;;;;;;;2.42;1.80;;;23.20;59.50;;;;;;4928788;28;95766;-85
2023/09/21 04:40:35;;;;;;;1.88;1.45;;;23.30;59.40;;;;;;4947096;28;95577;-85
2023/09/21 04:43:00;;;;;;;2.15;1.80;;;23.30;59.40;;;;;;4929755;28;92878;-85
2023/09/21 04:45:26;;;;;;;1.90;1.35;;;23.30;59.30;;;;;;4948289;28;93333;-86
2023/09/21 04:48:00;;;;;;;1.83;1.60;;;23.30;59.40;;;;;;4931667;28;94721;-86
2023/09/21 04:50:26;;;;;;;1.40;1.10;;;23.30;59.30;;;;;;4946048;28;91971;-85
2023/09/21 04:52:51;;;;;;;1.63;1.52;;;23.30;59.20;;;;;;4945435;28;93025;-85
2023/09/21 04:55:17;;;;;;;1.90;1.50;;;23.30;59.20;;;;;;4929382;28;92640;-86
2023/09/21 04:57:44;;;;;;;1.67;1.35;;;23.30;59.30;;;;;;4945520;28;93977;-86
2023/09/21 05:00:14;;;;;;;1.63;1.15;;;23.30;59.40;;;;;;4927280;28;96311;-85
2023/09/21 05:02:40;;;;;;;1.63;1.20;;;23.30;59.30;;;;;;4931890;28;92036;-85
2023/09/21 05:05:06;;;;;;;1.15;1.10;;;23.30;59.30;;;;;;4930659;28;92978;-85
2023/09/21 05:07:35;;;;;;;1.63;1.30;;;23.30;59.30;;;;;;4929061;28;95883;-85
2023/09/21 05:10:01;;;;;;;1.58;1.30;;;23.30;59.40;;;;;;4932315;28;95735;-86
2023/09/21 05:12:27;;;;;;;3.25;1.70;;;23.30;59.30;;;;;;4948630;28;92627;-86
2023/09/21 05:14:53;;;;;;;1.30;1.20;;;23.30;59.30;;;;;;4948073;28;92149;-85
2023/09/21 05:17:18;;;;;;;1.92;1.40;;;23.30;59.30;;;;;;4949094;28;92854;-85
2023/09/21 05:19:44;;;;;;;1.63;1.52;;;23.30;59.30;;;;;;4949889;28;93291;-85
2023/09/21 05:22:11;;;;;;;2.40;1.42;;;23.30;59.20;;;;;;4947273;28;94182;-85
2023/09/21 05:24:37;;;;;;;1.10;1.00;;;23.30;59.40;;;;;;4944588;28;92832;-85
2023/09/21 05:27:04;;;;;;;2.40;1.50;;;23.30;59.10;;;;;;4928931;28;93306;-85
2023/09/21 05:29:29;;;;;;;1.70;1.27;;;23.30;59.20;;;;;;4926757;28;94199;-86
2023/09/21 05:31:56;;;;;;;1.50;1.35;;;23.30;59.30;;;;;;4948425;28;93866;-85
2023/09/21 05:34:22;;;;;;;1.85;1.45;;;23.30;59.30;;;;;;4926966;28;93345;-85
2023/09/21 05:36:50;;;;;;;1.83;1.40;;;23.30;59.40;;;;;;4947922;28;92933;-85
2023/09/21 05:39:19;;;;;;;2.05;1.63;;;23.20;59.40;;;;;;4943801;28;92733;-86
2023/09/21 05:41:48;;;;;;;;;;;23.30;59.30;;;;;;4951187;28;93022;-85
2023/09/21 05:44:14;;;;;;;2.67;1.45;;;23.30;59.40;;;;;;4939789;28;92127;-85
2023/09/21 05:46:40;;;;;;;2.28;1.67;;;23.30;59.30;;;;;;4946256;28;93997;-84
2023/09/21 05:49:09;;;;;;;3.05;1.30;;;23.30;59.20;;;;;;4945284;28;93176;-84
2023/09/21 05:51:37;;;;;;;4.45;1.20;;;23.30;58.90;;;;;;4933961;28;92596;-86
2023/09/21 05:54:03;;;;;;;3.42;1.50;;;23.30;58.80;;;;;;4928681;28;93088;-83
2023/09/21 05:56:30;;;;;;;1.70;1.30;;;23.30;58.80;;;;;;4943169;28;93682;-84
2023/09/21 05:58:56;;;;;;;4.63;1.80;;;23.40;58.90;;;;;;4948134;28;93215;-86
2023/09/21 06:01:22;;;;;;;2.45;1.65;;;23.40;58.90;;;;;;4926557;28;93111;-83
2023/09/21 06:03:48;;;;;;;9.23;1.90;;;23.40;59.00;;;;;;4946092;28;92241;-85
2023/09/21 06:06:14;;;;;;;9.95;2.10;;;23.50;58.20;;;;;;4947442;28;94296;-83
2023/09/21 06:08:40;;;;;;;8.25;2.28;;;23.40;58.20;;;;;;4945825;28;93247;-84
2023/09/21 06:11:06;;;;;;;10.98;2.92;;;23.40;58.70;;;;;;4948945;28;94197;-86
2023/09/21 06:13:32;;;;;;;8.73;3.00;;;23.50;59.10;;;;;;4933985;28;92747;-86
2023/09/21 06:15:58;;;;;;;16.65;3.65;;;23.40;59.40;;;;;;4934853;28;96099;-86
2023/09/21 06:18:25;;;;;;;22.15;4.63;;;23.40;59.40;;;;;;4943957;28;93383;-85
2023/09/21 06:20:53;;;;;;;35.95;6.97;;;23.40;59.50;;;;;;4947334;28;91941;-86
2023/09/21 06:23:18;;;;;;;28.50;6.97;;;23.40;59.10;;;;;;4943006;28;93013;-86
2023/09/21 06:25:45;;;;;;;29.70;8.32;;;23.40;59.00;;;;;;4949653;28;92928;-86
2023/09/21 06:28:11;;;;;;;23.73;5.45;;;23.30;59.10;;;;;;4930435;28;95052;-84
2023/09/21 06:30:37;;;;;;;32.45;7.20;;;23.30;59.20;;;;;;4928321;28;92845;-85
2023/09/21 06:33:04;;;;;;;18.30;5.30;;;23.30;59.10;;;;;;4931762;28;93240;-85
2023/09/21 06:35:29;;;;;;;20.73;5.65;;;23.30;59.50;;;;;;4948835;28;93554;-84
2023/09/21 06:37:55;;;;;;;19.65;5.55;;;23.30;59.40;;;;;;4953628;28;94323;-85
2023/09/21 06:40:21;;;;;;;24.33;5.20;;;23.20;59.60;;;;;;4947023;28;92773;-85
2023/09/21 06:42:47;;;;;;;23.67;5.53;;;23.20;59.60;;;;;;4930777;28;92462;-85
2023/09/21 06:45:13;;;;;;;24.48;5.53;;;23.20;59.60;;;;;;4947748;28;93291;-85
2023/09/21 06:47:38;;;;;;;14.20;5.28;;;23.20;59.70;;;;;;4950013;28;92822;-84
2023/09/21 06:50:07;;;;;;;17.30;5.55;;;23.20;59.90;;;;;;4950771;28;92730;-84
2023/09/21 06:52:33;;;;;;;21.15;5.85;;;23.20;59.90;;;;;;4945611;28;92277;-84
2023/09/21 06:55:00;;;;;;;16.40;5.05;;;23.20;59.70;;;;;;4947192;28;93948;-84
2023/09/21 06:57:26;;;;;;;18.48;5.80;;;23.20;59.90;;;;;;4928655;28;94696;-84
2023/09/21 06:59:52;;;;;;;18.02;4.97;;;23.20;59.90;;;;;;4949620;28;93681;-83
2023/09/21 07:02:18;;;;;;;16.60;4.85;;;23.20;59.70;;;;;;4934427;28;92955;-84
2023/09/21 07:04:43;;;;;;;15.18;5.10;;;23.20;59.70;;;;;;4948006;28;94410;-84
2023/09/21 07:07:09;;;;;;;19.05;4.25;;;23.20;59.90;;;;;;4945445;28;95681;-84
2023/09/21 07:09:38;;;;;;;16.05;4.85;;;23.30;60.20;;;;;;4930519;28;92566;-84
2023/09/21 07:12:08;;;;;;;11.88;3.92;;;23.30;59.90;;;;;;4950561;28;93528;-86
2023/09/21 07:14:36;;;;;;;13.98;4.75;;;23.30;60.30;;;;;;4946217;28;93105;-84
2023/09/21 07:17:03;;;;;;;17.08;4.93;;;23.30;60.40;;;;;;4951951;28;92306;-85
2023/09/21 07:19:37;;;;;;;14.00;4.90;;;23.30;60.40;;;;;;4949731;28;92325;-85
2023/09/21 07:22:07;;;;;;;14.82;5.00;;;23.20;60.40;;;;;;4942513;28;93133;-85
2023/09/21 07:24:32;;;;;;;;;;;23.30;60.50;;;;;;4929212;28;100355;-85
2023/09/21 07:26:58;;;;;;;12.50;4.65;;;23.30;60.40;;;;;;4948235;28;93180;-85
2023/09/21 07:29:24;;;;;;;10.95;3.97;;;23.30;60.40;;;;;;4928791;28;94137;-86
2023/09/21 07:31:50;;;;;;;9.80;3.80;;;23.30;60.30;;;;;;4944295;28;93129;-86
2023/09/21 07:34:16;;;;;;;12.25;4.22;;;23.30;60.30;;;;;;4927848;28;95205;-85
2023/09/21 07:36:46;;;;;;;11.02;3.92;;;23.30;60.40;;;;;;4950814;28;92604;-85
2023/09/21 07:39:12;;;;;;;9.00;3.60;;;23.30;60.60;;;;;;4946985;28;92898;-85
2023/09/21 07:41:40;;;;;;;10.23;4.07;;;23.30;60.70;;;;;;4944323;28;92749;-85
2023/09/21 07:44:08;;;;;;;11.15;3.70;;;23.30;60.30;;;;;;4947633;28;93588;-85
2023/09/21 07:46:36;;;;;;;9.65;3.63;;;23.30;60.60;;;;;;4948660;28;92521;-86
2023/09/21 07:49:02;;;;;;;8.10;3.30;;;23.30;60.50;;;;;;4946721;28;93454;-87
2023/09/21 07:51:28;;;;;;;10.80;3.90;;;23.30;60.40;;;;;;4947079;28;92876;-86
2023/09/21 07:53:54;;;;;;;15.18;4.03;;;23.20;60.40;;;;;;4945275;28;93085;-85
2023/09/21 07:56:20;;;;;;;9.10;3.60;;;23.20;60.70;;;;;;4945518;28;93250;-86
2023/09/21 07:58:45;;;;;;;8.68;3.33;;;23.30;60.70;;;;;;4948705;28;93937;-86
2023/09/21 08:01:11;;;;;;;10.90;4.30;;;23.30;60.60;;;;;;4930013;28;92758;-86
2023/09/21 08:03:37;;;;;;;7.80;3.00;;;23.20;60.40;;;;;;4931051;28;95818;-85
2023/09/21 08:06:03;;;;;;;8.57;3.53;;;23.30;60.80;;;;;;4946973;28;92931;-84
2023/09/21 08:08:28;;;;;;;12.10;3.47;;;23.30;60.60;;;;;;4929185;28;92416;-86
2023/09/21 08:10:54;;;;;;;12.45;4.13;;;23.30;60.70;;;;;;4930723;28;92484;-86
2023/09/21 08:13:20;;;;;;;8.57;3.33;;;23.30;60.60;;;;;;4931983;28;96667;-86
2023/09/21 08:15:46;;;;;;;8.68;3.50;;;23.30;60.60;;;;;;4950388;28;93932;-86
2023/09/21 08:18:12;;;;;;;11.27;3.25;;;23.30;60.70;;;;;;4944297;28;92661;-88
2023/09/21 08:20:39;;;;;;;8.43;2.95;;;23.40;60.70;;;;;;4957247;28;92645;-86
2023/09/21 08:23:08;;;;;;;9.23;3.40;;;23.40;60.60;;;;;;4948894;28;94834;-86
2023/09/21 08:25:36;;;;;;;8.27;3.65;;;23.30;60.40;;;;;;4944403;28;94119;-87
2023/09/21 08:28:03;;;;;;;8.15;3.03;;;23.30;60.30;;;;;;4930910;28;93477;-89
2023/09/21 08:30:33;;;;;;;5.93;2.80;;;23.20;60.60;;;;;;4944875;28;92600;-87
2023/09/21 08:32:59;;;;;;;5.70;1.85;;;23.30;60.70;;;;;;4949690;28;93236;-85
2023/09/21 08:35:25;;;;;;;3.40;1.70;;;23.40;59.80;;;;;;4948194;28;92544;-86
2023/09/21 08:37:52;;;;;;;3.63;1.95;;;23.40;59.60;;;;;;4946758;28;95253;-86
2023/09/21 08:40:21;;;;;;;3.03;1.60;;;23.40;59.50;;;;;;4949372;28;92630;-87
2023/09/21 08:42:55;;;;;;;10.10;2.10;;;23.50;59.20;;;;;;4950479;28;94379;-89
2023/09/21 08:45:22;;;;;;;5.78;2.65;;;23.50;59.30;;;;;;4945832;28;95490;-86
2023/09/21 08:47:49;;;;;;;3.42;1.90;;;23.50;59.60;;;;;;4933037;28;92524;-88
2023/09/21 08:50:15;;;;;;;3.65;1.55;;;23.50;59.20;;;;;;4949819;28;92718;-89
2023/09/21 08:52:44;;;;;;;2.75;1.75;;;23.60;58.90;;;;;;4951235;28;93190;-86
2023/09/21 08:55:12;;;;;;;2.40;1.52;;;23.70;59.10;;;;;;4948254;28;94187;-87
2023/09/21 08:57:38;;;;;;;5.65;1.65;;;23.70;58.80;;;;;;4929202;28;92980;-83
2023/09/21 09:00:06;;;;;;;2.60;1.83;;;23.70;58.80;;;;;;4948581;28;92505;-85
2023/09/21 09:02:38;;;;;;;3.08;1.60;;;23.60;58.80;;;;;;4925632;28;96136;-85
2023/09/21 09:05:08;;;;;;;4.82;1.73;;;23.60;58.90;;;;;;4946102;28;92791;-84
2023/09/21 09:07:41;;;;;;;8.30;1.80;;;23.60;59.00;;;;;;4945162;28;92703;-86
2023/09/21 09:10:12;;;;;;;3.72;2.08;;;23.60;59.70;;;;;;4929822;28;92451;-85
2023/09/21 09:12:40;;;;;;;3.85;1.90;;;23.60;60.10;;;;;;4931699;28;96178;-85
2023/09/21 09:15:08;;;;;;;3.20;1.80;;;23.40;60.20;;;;;;4943861;28;92834;-85
2023/09/21 09:17:35;;;;;;;3.20;1.63;;;23.40;60.50;;;;;;4942454;28;93502;-85
2023/09/21 09:20:05;;;;;;;3.17;1.65;;;23.40;60.80;;;;;;4941741;28;91819;-85
2023/09/21 09:22:34;;;;;;;2.13;1.58;;;23.40;60.70;;;;;;4940876;28;95697;-86
2023/09/21 09:25:06;;;;;;;3.47;1.67;;;23.40;61.20;;;;;;4947315;28;92454;-86
2023/09/21 09:27:33;;;;;;;3.45;1.83;;;23.40;62.10;;;;;;4946465;28;94000;-84
2023/09/21 09:29:59;;;;;;;3.25;1.70;;;23.40;61.60;;;;;;4927732;28;92747;-85
2023/09/21 09:32:34;;;;;;;2.95;1.83;;;23.40;61.80;;;;;;4928870;28;95628;-85
2023/09/21 09:35:02;;;;;;;6.57;1.95;;;23.40;61.70;;;;;;4949666;28;93091;-86
2023/09/21 09:37:27;;;;;;;11.30;3.28;;;23.40;61.60;;;;;;4930464;28;93529;-85
2023/09/21 09:39:53;;;;;;;4.05;1.92;;;23.40;61.80;;;;;;4934661;28;92433;-85
2023/09/21 09:42:19;;;;;;;3.17;1.58;;;23.40;62.20;;;;;;4946658;28;93166;-84
2023/09/21 09:44:47;;;;;;;4.10;1.42;;;23.40;62.10;;;;;;4948692;28;92665;-85
2023/09/21 09:47:18;;;;;;;4.82;1.73;;;23.50;61.20;;;;;;4951046;28;92851;-84
2023/09/21 09:49:49;;;;;;;3.50;1.90;;;23.60;61.10;;;;;;4928668;28;92796;-86
2023/09/21 09:52:18;;;;;;;3.88;1.45;;;23.60;61.40;;;;;;4929762;28;95533;-87
2023/09/21 09:54:47;;;;;;;3.28;1.70;;;23.50;61.70;;;;;;4929626;28;97529;-85
2023/09/21 09:57:13;;;;;;;4.70;1.63;;;23.50;61.70;;;;;;4948481;28;93080;-88
2023/09/21 09:59:41;;;;;;;6.93;2.03;;;23.40;61.80;;;;;;4950145;28;93330;-88
2023/09/21 10:02:11;;;;;;;3.75;1.35;;;23.40;61.90;;;;;;4955202;28;93766;-85
2023/09/21 10:04:40;;;;;;;5.00;1.80;;;23.40;61.80;;;;;;5020281;22;93467;-86
2023/09/21 10:07:06;;;;;;;4.17;1.90;;;23.40;62.10;;;;;;4919819;28;92925;-86
2023/09/21 10:09:32;;;;;;;4.45;1.95;;;23.40;62.00;;;;;;4906362;28;92218;-87
2023/09/21 10:11:59;;;;;;;2.85;1.45;;;23.40;62.20;;;;;;4922503;28;92571;-86
2023/09/21 10:14:25;;;;;;;6.70;2.17;;;23.50;60.90;;;;;;4921739;28;92262;-86
2023/09/21 10:16:56;;;;;;;5.25;2.28;;;23.40;61.40;;;;;;4922312;28;95076;-88
2023/09/21 10:19:26;;;;;;;4.07;2.20;;;23.50;61.70;;;;;;4920621;28;91976;-89
2023/09/21 10:22:26;;;;;;;5.60;1.85;;;23.40;61.70;;;;;;4925544;28;93662;-87
2023/09/21 10:24:55;;;;;;;7.20;2.13;;;23.60;60.60;;;;;;4920697;28;96109;-87
2023/09/21 10:27:24;;;;;;;;;;;23.60;60.90;;;;;;4923641;28;92177;-87
2023/09/21 10:29:58;;;;;;;5.53;2.00;;;23.60;60.90;;;;;;4921676;28;92747;-87
2023/09/21 10:32:24;;;;;;;5.82;2.10;;;23.60;61.20;;;;;;4919949;28;93740;-87
2023/09/21 10:34:50;;;;;;;6.53;2.00;;;23.50;61.10;;;;;;4917456;28;92831;-87
2023/09/21 10:37:29;;;;;;;7.75;2.17;;;23.50;61.30;;;;;;4903363;28;93071;-87
2023/09/21 10:40:03;;;;;;;4.13;2.10;;;23.50;61.40;;;;;;4906227;28;92720;-87
2023/09/21 10:42:36;;;;;;;2.70;1.70;;;23.50;61.60;;;;;;4920015;28;98609;-87
2023/09/21 10:45:07;;;;;;;2.95;1.67;;;23.40;62.00;;;;;;4906725;28;94763;-87
2023/09/21 10:47:36;;;;;;;6.32;2.20;;;23.40;62.30;;;;;;4919999;28;92158;-89
2023/09/21 10:50:14;;;;;;;4.38;1.60;;;23.40;62.20;;;;;;4918347;28;92125;-87
2023/09/21 10:52:48;;;;;;;1.90;1.63;;;23.60;61.90;;;;;;4917496;28;94164;-85
2023/09/21 10:55:17;;;;;;;10.30;2.15;;;23.50;62.30;;;;;;4920787;28;93714;-87
2023/09/21 10:57:44;;;;;;;8.77;2.50;;;23.60;62.10;;;;;;4902210;28;93224;-84
2023/09/21 11:00:25;;;;;;;10.45;2.22;;;23.70;62.10;;;;;;4917905;28;92048;-84
2023/09/21 11:02:53;;;;;;;5.00;2.13;;;23.60;62.00;;;;;;4918027;28;92989;-86
2023/09/21 11:05:21;;;;;;;4.63;2.05;;;23.60;62.30;;;;;;4919288;28;92940;-84
2023/09/21 11:07:49;;;;;;;12.00;3.20;;;23.60;62.10;;;;;;4919761;28;93331;-85
2023/09/21 11:10:16;;;;;;;6.18;2.00;;;23.60;68.90;;;;;;4918730;28;92761;-83
2023/09/21 11:12:42;;;;;;;7.50;2.72;;;23.60;63.70;;;;;;4916958;28;92601;-83
2023/09/21 11:15:12;;;;;;;21.52;7.38;;;23.60;64.00;;;;;;4917234;28;92689;-83
2023/09/21 11:17:41;;;;;;;26.70;7.15;;;23.60;63.50;;;;;;4918014;28;92465;-84
2023/09/21 11:20:08;;;;;;;24.08;6.22;;;23.60;63.30;;;;;;4915568;28;93182;-87
2023/09/21 11:22:34;;;;;;;24.02;8.82;;;23.60;62.50;;;;;;4897175;28;94337;-86
2023/09/21 11:25:03;;;;;;;29.15;7.90;;;23.50;63.30;;;;;;4909768;28;91943;-89
2023/09/21 11:27:28;;;;;;;26.27;7.07;;;23.60;63.40;;;;;;4905372;28;92757;-87
2023/09/21 11:29:55;;;;;;;20.58;6.35;;;23.70;63.30;;;;;;4909453;28;92948;-87
2023/09/21 11:32:22;;;;;;;20.20;6.47;;;23.70;63.40;;;;;;4902832;28;93835;-86
2023/09/21 11:34:56;;;;;;;17.85;6.72;;;23.60;64.30;;;;;;4909349;28;93857;-85
2023/09/21 11:37:22;;;;;;;13.27;4.35;;;23.50;63.80;;;;;;4910148;28;92708;-85
2023/09/21 11:39:49;;;;;;;13.10;4.53;;;23.50;63.10;;;;;;4903324;28;93071;-86
2023/09/21 11:42:19;;;;;;;16.30;6.22;;;23.50;62.90;;;;;;4910922;28;94503;-85
2023/09/21 11:44:49;;;;;;;15.93;5.20;;;23.60;65.40;;;;;;4906604;28;93386;-85
2023/09/21 11:47:15;;;;;;;18.45;5.95;;;23.60;71.00;;;;;;4886734;28;100399;-86
2023/09/21 11:49:42;;;;;;;15.43;6.07;;;23.70;72.70;;;;;;4891058;28;91727;-86
2023/09/21 11:52:15;;;;;;;14.30;4.38;;;23.60;73.90;;;;;;4886278;28;93192;-86
2023/09/21 11:54:40;;;;;;;15.02;5.18;;;23.60;71.60;;;;;;4870206;28;95272;-86
2023/09/21 11:57:09;;;;;;;14.70;4.82;;;23.60;74.70;;;;;;4885220;28;93498;-85
2023/09/21 11:59:45;;;;;;;10.02;3.63;;;23.50;73.80;;;;;;4872941;28;92586;-86
2023/09/21 12:02:16;;;;;;;9.32;4.68;;;23.50;69.30;;;;;;4869044;28;95801;-85
2023/09/21 12:04:43;;;;;;;11.10;3.55;;;23.40;68.70;;;;;;4884079;28;93757;-86
2023/09/21 12:07:14;;;;;;;8.35;3.95;;;23.40;68.90;;;;;;4890527;28;92690;-86
2023/09/21 12:09:42;;;;;;;6.53;3.38;;;23.40;68.20;;;;;;4891656;28;93302;-86
2023/09/21 12:12:09;;;;;;;6.63;3.93;;;23.40;68.40;;;;;;4886286;28;92846;-86
2023/09/21 12:14:36;;;;;;;7.57;3.58;;;23.40;68.50;;;;;;4868851;28;95377;-87
2023/09/21 12:17:09;;;;;;;6.45;3.20;;;23.40;67.90;;;;;;4887391;28;93048;-86
2023/09/21 12:19:39;;;;;;;6.97;3.17;;;23.40;69.00;;;;;;4892054;28;92576;-89
2023/09/21 12:22:05;;;;;;;9.07;3.13;;;23.40;67.80;;;;;;4872848;28;95108;-86
2023/09/21 12:24:34;;;;;;;3.70;2.40;;;23.40;67.60;;;;;;4892530;28;98065;-87
2023/09/21 12:27:07;;;;;;;5.55;2.38;;;23.40;66.70;;;;;;4876037;28;93330;-86
2023/09/21 12:29:33;;;;;;;4.07;2.20;;;23.40;66.60;;;;;;4876742;28;92876;-87
2023/09/21 12:32:04;;;;;;;5.57;2.05;;;23.40;66.10;;;;;;4894729;28;93069;-86
2023/09/21 12:34:31;;;;;;;6.07;2.45;;;23.40;65.60;;;;;;4874314;28;94641;-87
2023/09/21 12:36:57;;;;;;;4.18;2.00;;;23.50;66.50;;;;;;4876579;28;92775;-86
2023/09/21 12:39:24;;;;;;;4.35;2.13;;;23.50;65.70;;;;;;4889709;28;91881;-87
2023/09/21 12:41:50;;;;;;;6.10;2.60;;;23.50;66.30;;;;;;4892297;28;92759;-87
2023/09/21 12:44:18;;;;;;;5.35;2.40;;;23.40;66.60;;;;;;4893383;28;93379;-87
2023/09/21 12:46:44;;;;;;;7.75;2.78;;;23.40;66.80;;;;;;4875863;28;93880;-87